Time;durP1;ratioP1;P1;durP2;ratioP2;P2;SDS_P1;SDS_P2;PMS_P1;PMS_P2;Temp;Humidity;BMP_temperature;BMP_pressure;BME280_temperature;BME280_humidity;BME280_pressure;Samples;Min_cycle;Max_cycle;Signal;HPM_P1;HPM_P2
2024/01/20 00:00:55;;;;;;;2.50;1.20;;;;;;;;;;5026485;28;20502;-59
2024/01/20 00:03:21;;;;;;;2.00;1.10;;;;;;;;;;5026826;28;20041;-59
2024/01/20 00:05:46;;;;;;;1.70;1.10;;;;;;;;;;5022714;28;20105;-58
2024/01/20 00:08:11;;;;;;;1.90;1.20;;;;;;;;;;5026712;28;20069;-58
2024/01/20 00:10:37;;;;;;;1.48;1.00;;;;;;;;;;5026096;28;20030;-58
2024/01/20 00:13:02;;;;;;;2.78;1.17;;;;;;;;;;5026734;28;20046;-58
2024/01/20 00:15:27;;;;;;;1.85;1.08;;;;;;;;;;5006034;28;20751;-60
2024/01/20 00:17:52;;;;;;;1.98;1.10;;;;;;;;;;5025729;28;20068;-60
2024/01/20 00:20:18;;;;;;;1.95;1.00;;;;;;;;;;5026227;28;20048;-59
2024/01/20 00:22:43;;;;;;;1.42;1.00;;;;;;;;;;5014815;28;20526;-59
2024/01/20 00:25:08;;;;;;;2.28;1.08;;;;;;;;;;5025226;28;20116;-58
2024/01/20 00:27:34;;;;;;;2.20;1.08;;;;;;;;;;5025504;28;20051;-60
2024/01/20 00:29:59;;;;;;;1.80;0.98;;;;;;;;;;5025370;28;20518;-58
2024/01/20 00:32:24;;;;;;;1.92;1.00;;;;;;;;;;5021112;28;20041;-58
2024/01/20 00:34:50;;;;;;;1.35;0.70;;;;;;;;;;5024960;28;20041;-60
2024/01/20 00:37:15;;;;;;;1.67;0.95;;;;;;;;;;5025037;28;20037;-59
2024/01/20 00:39:40;;;;;;;1.80;1.10;;;;;;;;;;5021349;28;20049;-60
2024/01/20 00:42:06;;;;;;;1.67;0.80;;;;;;;;;;5021713;28;20663;-59
2024/01/20 00:44:31;;;;;;;1.95;1.00;;;;;;;;;;5025037;28;20038;-60
2024/01/20 00:46:56;;;;;;;1.98;0.80;;;;;;;;;;5024785;28;20037;-60
2024/01/20 00:49:22;;;;;;;2.00;1.20;;;;;;;;;;5020031;28;20087;-60
2024/01/20 00:51:47;;;;;;;1.83;0.95;;;;;;;;;;5018521;28;20029;-59
2024/01/20 00:54:12;;;;;;;1.42;1.00;;;;;;;;;;5018390;28;20042;-59
2024/01/20 00:56:38;;;;;;;1.35;0.80;;;;;;;;;;5025219;28;20526;-59
2024/01/20 00:59:03;;;;;;;1.38;0.85;;;;;;;;;;5025145;28;20037;-59
2024/01/20 01:01:28;;;;;;;1.73;0.90;;;;;;;;;;5020070;28;20032;-59
2024/01/20 01:03:53;;;;;;;1.33;0.95;;;;;;;;;;5025993;28;20033;-60
2024/01/20 01:06:19;;;;;;;1.27;0.88;;;;;;;;;;5024821;28;20037;-56
2024/01/20 01:08:44;;;;;;;1.83;0.80;;;;;;;;;;5025040;28;20113;-59
2024/01/20 01:11:09;;;;;;;1.27;0.85;;;;;;;;;;5012103;28;20477;-60
2024/01/20 01:13:37;;;;;;;1.42;0.80;;;;;;;;;;5025300;28;20191;-59
2024/01/20 01:16:03;;;;;;;1.88;1.00;;;;;;;;;;5023897;28;20114;-59
2024/01/20 01:18:28;;;;;;;1.33;0.73;;;;;;;;;;5024543;28;20226;-59
2024/01/20 01:20:53;;;;;;;1.45;0.90;;;;;;;;;;5010625;28;20034;-59
2024/01/20 01:23:18;;;;;;;1.67;0.95;;;;;;;;;;5024061;28;20162;-61
2024/01/20 01:25:44;;;;;;;1.35;0.85;;;;;;;;;;5024749;28;20403;-59
2024/01/20 01:28:09;;;;;;;2.33;0.93;;;;;;;;;;5018323;28;20034;-62
2024/01/20 01:30:34;;;;;;;1.40;0.82;;;;;;;;;;5021492;28;20066;-63
2024/01/20 01:32:59;;;;;;;1.10;0.85;;;;;;;;;;5016007;28;20641;-60
2024/01/20 01:35:25;;;;;;;1.60;0.80;;;;;;;;;;5004746;28;20106;-59
2024/01/20 01:37:50;;;;;;;1.52;0.80;;;;;;;;;;5025699;28;20029;-60
2024/01/20 01:40:15;;;;;;;0.93;0.63;;;;;;;;;;5024760;28;20034;-58
2024/01/20 01:42:41;;;;;;;1.65;0.80;;;;;;;;;;5012770;28;20057;-59
2024/01/20 01:45:06;;;;;;;1.83;0.90;;;;;;;;;;5004661;28;20121;-58
2024/01/20 01:47:31;;;;;;;1.25;0.88;;;;;;;;;;5011410;28;20037;-58
2024/01/20 01:49:57;;;;;;;1.40;0.80;;;;;;;;;;5014410;28;20033;-62
2024/01/20 01:52:23;;;;;;;1.40;0.73;;;;;;;;;;5008877;28;20105;-61
2024/01/20 01:54:48;;;;;;;1.15;0.90;;;;;;;;;;5011907;28;20531;-61
2024/01/20 01:57:13;;;;;;;1.77;0.90;;;;;;;;;;5022935;28;20032;-61
2024/01/20 01:59:38;;;;;;;1.85;0.77;;;;;;;;;;5016947;28;20038;-61
2024/01/20 02:02:04;;;;;;;1.15;0.77;;;;;;;;;;5016542;28;20041;-61
2024/01/20 02:04:29;;;;;;;1.63;0.90;;;;;;;;;;5024118;28;20030;-61
2024/01/20 02:06:54;;;;;;;1.50;0.82;;;;;;;;;;5025143;28;20049;-61
2024/01/20 02:09:20;;;;;;;1.65;0.98;;;;;;;;;;5024463;28;20519;-60
2024/01/20 02:11:45;;;;;;;2.05;0.95;;;;;;;;;;5022446;28;20045;-60
2024/01/20 02:14:11;;;;;;;1.30;0.80;;;;;;;;;;5023000;28;20056;-61
2024/01/20 02:16:36;;;;;;;1.58;0.80;;;;;;;;;;5015042;28;20052;-61
2024/01/20 02:19:02;;;;;;;1.20;0.73;;;;;;;;;;5018311;28;20084;-61
2024/01/20 02:21:27;;;;;;;1.38;0.93;;;;;;;;;;5024631;28;20041;-60
2024/01/20 02:23:53;;;;;;;1.20;0.77;;;;;;;;;;5019170;28;20045;-59
2024/01/20 02:26:18;;;;;;;1.33;0.73;;;;;;;;;;5004505;28;20057;-61
2024/01/20 02:28:43;;;;;;;1.65;0.65;;;;;;;;;;5011162;28;20079;-58
2024/01/20 02:31:09;;;;;;;0.90;0.60;;;;;;;;;;5008218;28;20030;-58
2024/01/20 02:33:34;;;;;;;1.20;0.80;;;;;;;;;;5005898;28;20044;-58
2024/01/20 02:35:59;;;;;;;1.27;0.70;;;;;;;;;;5019097;28;20063;-58
2024/01/20 02:38:24;;;;;;;1.25;0.63;;;;;;;;;;5012994;28;20628;-58
2024/01/20 02:40:50;;;;;;;1.20;0.60;;;;;;;;;;5023902;28;20100;-59
2024/01/20 02:43:15;;;;;;;1.45;0.75;;;;;;;;;;5005678;28;20586;-57
2024/01/20 02:45:40;;;;;;;0.80;0.50;;;;;;;;;;5006916;28;20038;-59
2024/01/20 02:48:06;;;;;;;0.70;0.50;;;;;;;;;;5023943;28;20490;-60
2024/01/20 02:50:31;;;;;;;1.25;0.60;;;;;;;;;;5024143;28;20045;-59
2024/01/20 02:52:56;;;;;;;1.42;0.82;;;;;;;;;;5020551;28;20132;-58
2024/01/20 02:55:22;;;;;;;1.50;0.80;;;;;;;;;;5025883;28;20534;-58
2024/01/20 02:57:47;;;;;;;1.88;0.63;;;;;;;;;;5027058;28;20380;-60
2024/01/20 03:00:12;;;;;;;2.13;0.80;;;;;;;;;;5028305;28;20076;-58
2024/01/20 03:02:38;;;;;;;1.13;0.70;;;;;;;;;;5028730;28;20097;-58
2024/01/20 03:05:03;;;;;;;1.27;0.60;;;;;;;;;;5027741;28;20475;-60
2024/01/20 03:07:28;;;;;;;0.90;0.60;;;;;;;;;;5024551;28;20037;-58
2024/01/20 03:09:54;;;;;;;1.70;0.50;;;;;;;;;;5008965;28;20493;-59
2024/01/20 03:12:19;;;;;;;1.10;0.80;;;;;;;;;;5027793;28;20037;-57
2024/01/20 03:14:45;;;;;;;1.02;0.60;;;;;;;;;;5015364;28;20044;-57
2024/01/20 03:17:10;;;;;;;1.17;0.60;;;;;;;;;;5023616;28;20041;-59
2024/01/20 03:19:35;;;;;;;1.35;0.70;;;;;;;;;;5027124;28;20060;-60
2024/01/20 03:22:01;;;;;;;1.45;0.63;;;;;;;;;;5027959;28;20133;-59
2024/01/20 03:24:26;;;;;;;1.35;0.65;;;;;;;;;;5018209;28;20341;-59
2024/01/20 03:26:54;;;;;;;2.15;0.80;;;;;;;;;;5011302;28;20103;-57
2024/01/20 03:29:19;;;;;;;1.75;0.70;;;;;;;;;;5022553;28;20041;-59
2024/01/20 03:31:45;;;;;;;0.80;0.50;;;;;;;;;;5027512;28;20081;-58
2024/01/20 03:34:10;;;;;;;0.88;0.50;;;;;;;;;;5019713;28;20132;-58
2024/01/20 03:36:35;;;;;;;0.95;0.50;;;;;;;;;;5017531;28;20065;-60
2024/01/20 03:39:01;;;;;;;1.17;0.57;;;;;;;;;;5026993;28;20134;-60
2024/01/20 03:41:26;;;;;;;1.00;0.60;;;;;;;;;;5026835;28;20243;-56
2024/01/20 03:43:52;;;;;;;0.95;0.55;;;;;;;;;;5022048;28;20037;-60
2024/01/20 03:46:17;;;;;;;1.20;0.60;;;;;;;;;;5019790;28;20065;-57
2024/01/20 03:48:42;;;;;;;1.05;0.55;;;;;;;;;;5025577;28;20041;-57
2024/01/20 03:51:08;;;;;;;0.70;0.50;;;;;;;;;;5011884;28;20037;-58
2024/01/20 03:53:34;;;;;;;2.92;0.60;;;;;;;;;;5018747;28;20046;-58
2024/01/20 03:56:00;;;;;;;0.93;0.50;;;;;;;;;;5027280;28;20041;-59
2024/01/20 03:58:25;;;;;;;1.00;0.60;;;;;;;;;;5025385;28;20030;-61
2024/01/20 04:00:51;;;;;;;0.82;0.60;;;;;;;;;;5013820;28;20041;-62
2024/01/20 04:03:16;;;;;;;1.02;0.50;;;;;;;;;;5015495;28;20072;-59
2024/01/20 04:05:42;;;;;;;0.98;0.50;;;;;;;;;;5019671;28;20038;-56
2024/01/20 04:08:07;;;;;;;1.10;0.47;;;;;;;;;;5022654;28;20063;-57
2024/01/20 04:10:32;;;;;;;1.20;0.60;;;;;;;;;;5027145;28;20044;-57
2024/01/20 04:12:57;;;;;;;1.05;0.52;;;;;;;;;;5026668;28;20404;-57
2024/01/20 04:15:23;;;;;;;1.23;0.60;;;;;;;;;;5025783;28;20116;-56
2024/01/20 04:17:48;;;;;;;0.73;0.50;;;;;;;;;;5025631;28;20033;-60
2024/01/20 04:20:14;;;;;;;0.73;0.38;;;;;;;;;;5027105;28;20516;-61
2024/01/20 04:22:39;;;;;;;1.00;0.52;;;;;;;;;;5039477;28;20037;-58
2024/01/20 04:25:04;;;;;;;0.93;0.47;;;;;;;;;;5013654;28;20124;-60
2024/01/20 04:27:30;;;;;;;0.80;0.40;;;;;;;;;;5018459;28;20038;-59
2024/01/20 04:29:55;;;;;;;0.90;0.60;;;;;;;;;;5023170;28;20034;-61
2024/01/20 04:32:20;;;;;;;0.95;0.50;;;;;;;;;;5026443;28;20100;-59
2024/01/20 04:34:46;;;;;;;1.20;0.60;;;;;;;;;;5018094;28;20037;-61
2024/01/20 04:37:11;;;;;;;1.98;0.47;;;;;;;;;;5022443;28;20052;-58
2024/01/20 04:39:36;;;;;;;1.33;0.50;;;;;;;;;;5006314;28;20172;-59
2024/01/20 04:42:02;;;;;;;0.70;0.40;;;;;;;;;;5006284;28;20072;-59
2024/01/20 04:44:28;;;;;;;0.68;0.45;;;;;;;;;;5012824;28;20129;-58
2024/01/20 04:46:53;;;;;;;1.15;0.50;;;;;;;;;;5025843;28;20124;-58
2024/01/20 04:49:18;;;;;;;0.50;0.35;;;;;;;;;;5014442;28;20459;-58
2024/01/20 04:51:44;;;;;;;0.52;0.40;;;;;;;;;;5017227;28;20030;-60
2024/01/20 04:54:10;;;;;;;0.68;0.32;;;;;;;;;;5018134;28;20078;-61
2024/01/20 04:56:35;;;;;;;0.95;0.47;;;;;;;;;;5025911;28;20029;-60
2024/01/20 04:59:00;;;;;;;0.90;0.50;;;;;;;;;;5025331;28;20068;-61
2024/01/20 05:01:26;;;;;;;0.60;0.30;;;;;;;;;;5025851;28;20090;-59
2024/01/20 05:03:51;;;;;;;0.90;0.50;;;;;;;;;;5021040;28;20135;-61
2024/01/20 05:06:16;;;;;;;0.60;0.40;;;;;;;;;;5022214;28;20041;-58
2024/01/20 05:08:42;;;;;;;1.00;0.52;;;;;;;;;;5012970;28;20191;-59
2024/01/20 05:11:07;;;;;;;0.60;0.40;;;;;;;;;;5006469;28;20034;-59
2024/01/20 05:13:32;;;;;;;0.68;0.35;;;;;;;;;;5023032;28;24412;-60
2024/01/20 05:15:58;;;;;;;0.68;0.40;;;;;;;;;;5019526;28;20030;-61
2024/01/20 05:18:23;;;;;;;1.08;0.50;;;;;;;;;;5016151;28;20037;-61
2024/01/20 05:20:48;;;;;;;0.60;0.40;;;;;;;;;;5025514;28;20064;-62
2024/01/20 05:23:14;;;;;;;0.90;0.40;;;;;;;;;;5025016;28;20041;-58
2024/01/20 05:25:39;;;;;;;1.02;0.50;;;;;;;;;;5017418;28;20160;-59
2024/01/20 05:28:04;;;;;;;0.73;0.38;;;;;;;;;;5019877;28;20103;-60
2024/01/20 05:30:30;;;;;;;0.65;0.40;;;;;;;;;;5019141;28;20116;-60
2024/01/20 05:32:55;;;;;;;0.50;0.30;;;;;;;;;;5008301;28;20393;-61
2024/01/20 05:35:20;;;;;;;0.50;0.32;;;;;;;;;;5023934;28;20095;-61
2024/01/20 05:37:46;;;;;;;0.80;0.40;;;;;;;;;;5024038;28;20546;-60
2024/01/20 05:40:11;;;;;;;0.60;0.32;;;;;;;;;;5025735;28;20040;-61
2024/01/20 05:42:36;;;;;;;0.88;0.40;;;;;;;;;;5025379;28;20040;-57
2024/01/20 05:45:02;;;;;;;0.98;0.43;;;;;;;;;;5015727;28;20495;-59
2024/01/20 05:47:27;;;;;;;0.63;0.38;;;;;;;;;;5006404;28;20109;-61
2024/01/20 05:49:52;;;;;;;0.55;0.20;;;;;;;;;;5009224;28;20172;-61
2024/01/20 05:52:18;;;;;;;0.93;0.45;;;;;;;;;;5025499;28;20468;-61
2024/01/20 05:54:43;;;;;;;0.73;0.30;;;;;;;;;;5015181;28;20054;-62
2024/01/20 05:57:08;;;;;;;0.85;0.30;;;;;;;;;;5025196;28;20041;-61
2024/01/20 05:59:34;;;;;;;0.47;0.30;;;;;;;;;;5023443;28;20641;-62
2024/01/20 06:01:59;;;;;;;1.00;0.50;;;;;;;;;;5025654;28;20038;-60
2024/01/20 06:04:25;;;;;;;0.82;0.50;;;;;;;;;;5025327;28;20029;-60
2024/01/20 06:06:50;;;;;;;0.55;0.30;;;;;;;;;;5024486;28;20307;-61
2024/01/20 06:09:15;;;;;;;0.73;0.40;;;;;;;;;;5023750;28;20739;-61
2024/01/20 06:11:41;;;;;;;0.95;0.40;;;;;;;;;;5025217;28;20171;-61
2024/01/20 06:14:06;;;;;;;0.55;0.30;;;;;;;;;;5024800;28;20445;-60
2024/01/20 06:16:33;;;;;;;0.60;0.40;;;;;;;;;;5024019;28;20068;-61
2024/01/20 06:18:59;;;;;;;0.65;0.45;;;;;;;;;;5018093;28;20123;-61
2024/01/20 06:21:24;;;;;;;0.73;0.40;;;;;;;;;;5014419;28;20124;-61
2024/01/20 06:23:49;;;;;;;0.68;0.40;;;;;;;;;;5029512;28;20091;-58
2024/01/20 06:26:15;;;;;;;0.70;0.50;;;;;;;;;;5019487;28;20049;-61
2024/01/20 06:28:40;;;;;;;1.05;0.50;;;;;;;;;;5020146;28;20125;-61
2024/01/20 06:31:05;;;;;;;0.95;0.50;;;;;;;;;;5027695;28;20090;-60
2024/01/20 06:33:30;;;;;;;0.70;0.30;;;;;;;;;;5027078;28;20411;-60
2024/01/20 06:35:56;;;;;;;0.35;0.22;;;;;;;;;;5028019;28;20473;-61
2024/01/20 06:38:21;;;;;;;0.73;0.30;;;;;;;;;;5026539;28;20114;-58
2024/01/20 06:40:46;;;;;;;0.68;0.30;;;;;;;;;;5027760;28;20025;-59
2024/01/20 06:43:12;;;;;;;0.52;0.30;;;;;;;;;;5027177;28;20029;-61
2024/01/20 06:45:37;;;;;;;0.80;0.40;;;;;;;;;;5027039;28;20029;-60
2024/01/20 06:48:04;;;;;;;0.80;0.30;;;;;;;;;;5025551;28;20021;-60
2024/01/20 06:50:30;;;;;;;0.82;0.30;;;;;;;;;;5022856;28;20025;-58
2024/01/20 06:52:55;;;;;;;0.82;0.40;;;;;;;;;;5026414;28;20146;-59
2024/01/20 06:55:20;;;;;;;0.60;0.40;;;;;;;;;;5027657;28;20025;-64
2024/01/20 06:57:46;;;;;;;0.95;0.40;;;;;;;;;;5025722;28;20131;-58
2024/01/20 07:00:11;;;;;;;0.50;0.20;;;;;;;;;;5027463;28;20499;-63
2024/01/20 07:02:37;;;;;;;0.50;0.40;;;;;;;;;;5008131;28;20024;-58
2024/01/20 07:05:02;;;;;;;0.98;0.40;;;;;;;;;;5027742;28;20105;-59
2024/01/20 07:07:27;;;;;;;0.47;0.30;;;;;;;;;;5035879;28;20029;-60
2024/01/20 07:09:52;;;;;;;0.52;0.38;;;;;;;;;;5026296;28;20028;-60
2024/01/20 07:12:18;;;;;;;0.73;0.47;;;;;;;;;;5025846;28;20467;-61
2024/01/20 07:14:43;;;;;;;0.90;0.40;;;;;;;;;;5021549;28;20100;-63
2024/01/20 07:17:09;;;;;;;0.93;0.40;;;;;;;;;;5023221;28;20017;-60
2024/01/20 07:19:34;;;;;;;0.75;0.40;;;;;;;;;;5021449;28;20483;-62
2024/01/20 07:21:59;;;;;;;0.55;0.40;;;;;;;;;;5020730;28;20017;-58
2024/01/20 07:24:27;;;;;;;0.75;0.40;;;;;;;;;;5022600;28;20502;-62
2024/01/20 07:26:52;;;;;;;0.70;0.40;;;;;;;;;;5025910;28;20021;-60
2024/01/20 07:29:18;;;;;;;0.82;0.30;;;;;;;;;;5026686;28;20120;-60
2024/01/20 07:31:43;;;;;;;0.65;0.30;;;;;;;;;;5026239;28;20041;-59
2024/01/20 07:34:08;;;;;;;0.65;0.40;;;;;;;;;;5026542;28;20044;-60
2024/01/20 07:36:33;;;;;;;0.68;0.30;;;;;;;;;;5027690;28;20084;-60
2024/01/20 07:38:59;;;;;;;0.57;0.30;;;;;;;;;;5026795;28;20589;-60
2024/01/20 07:41:24;;;;;;;0.43;0.30;;;;;;;;;;5024255;28;20091;-62
2024/01/20 07:43:49;;;;;;;1.00;0.40;;;;;;;;;;5026391;28;20466;-63
2024/01/20 07:46:15;;;;;;;0.45;0.30;;;;;;;;;;5026730;28;20057;-59
2024/01/20 07:48:40;;;;;;;1.58;0.50;;;;;;;;;;5022848;28;21048;-60
2024/01/20 07:51:06;;;;;;;0.90;0.40;;;;;;;;;;5021507;28;20126;-64
2024/01/20 07:53:31;;;;;;;0.50;0.30;;;;;;;;;;5023452;28;20113;-59
2024/01/20 07:55:56;;;;;;;1.70;0.40;;;;;;;;;;5023619;28;20029;-58
2024/01/20 07:58:21;;;;;;;1.27;0.40;;;;;;;;;;5025756;28;20014;-61
2024/01/20 08:00:47;;;;;;;1.10;0.40;;;;;;;;;;5021474;28;20521;-60
2024/01/20 08:03:12;;;;;;;0.88;0.30;;;;;;;;;;5023040;28;20029;-58
2024/01/20 08:05:37;;;;;;;0.45;0.22;;;;;;;;;;5027123;28;20440;-58
2024/01/20 08:10:47;;;;;;;0.80;0.40;;;;;;;;;;5020070;28;20037;-60
2024/01/20 08:13:12;;;;;;;0.80;0.40;;;;;;;;;;5008622;28;20431;-60
2024/01/20 08:15:38;;;;;;;0.82;0.40;;;;;;;;;;5025562;28;20415;-61
2024/01/20 08:18:03;;;;;;;2.70;0.40;;;;;;;;;;5015213;28;20454;-63
2024/01/20 08:20:29;;;;;;;1.50;0.40;;;;;;;;;;5011905;28;20107;-64
2024/01/20 08:22:54;;;;;;;1.50;0.60;;;;;;;;;;5012549;28;20082;-62
2024/01/20 08:25:19;;;;;;;0.70;0.40;;;;;;;;;;5003476;28;20061;-58
2024/01/20 08:27:44;;;;;;;0.68;0.38;;;;;;;;;;5002836;28;20042;-61
2024/01/20 08:30:10;;;;;;;0.52;0.28;;;;;;;;;;4998125;28;20038;-59
2024/01/20 08:32:37;;;;;;;0.60;0.30;;;;;;;;;;5003776;28;20036;-60
2024/01/20 08:35:02;;;;;;;1.58;0.30;;;;;;;;;;5006893;28;20463;-58
2024/01/20 08:37:28;;;;;;;0.90;0.40;;;;;;;;;;5004032;28;20049;-59
2024/01/20 08:39:53;;;;;;;1.40;0.40;;;;;;;;;;5005310;28;20483;-58
2024/01/20 08:42:19;;;;;;;1.08;0.30;;;;;;;;;;5015581;28;20033;-57
2024/01/20 08:44:44;;;;;;;0.98;0.40;;;;;;;;;;5006084;28;20034;-59
2024/01/20 08:47:10;;;;;;;1.50;0.55;;;;;;;;;;5015858;28;20036;-62
2024/01/20 08:49:35;;;;;;;0.93;0.40;;;;;;;;;;5016157;28;20112;-58
2024/01/20 08:52:00;;;;;;;0.77;0.50;;;;;;;;;;5005783;28;20043;-61
2024/01/20 08:54:25;;;;;;;2.00;0.77;;;;;;;;;;5023281;28;20503;-58
2024/01/20 08:56:51;;;;;;;1.15;0.50;;;;;;;;;;5024754;28;20136;-61
2024/01/20 08:59:18;;;;;;;0.60;0.32;;;;;;;;;;5025575;28;20076;-58
2024/01/20 09:01:43;;;;;;;1.33;0.60;;;;;;;;;;5024170;28;20034;-60
2024/01/20 09:04:08;;;;;;;0.98;0.40;;;;;;;;;;5018685;28;20076;-58
2024/01/20 09:06:34;;;;;;;1.27;0.60;;;;;;;;;;5023205;28;20391;-58
2024/01/20 09:08:59;;;;;;;2.70;0.35;;;;;;;;;;5030006;28;20029;-60
2024/01/20 09:11:24;;;;;;;0.80;0.40;;;;;;;;;;5024475;28;20132;-59
2024/01/20 09:14:20;;;;;;;1.35;0.40;;;;;;;;;;5027817;28;20046;-61
2024/01/20 09:16:46;;;;;;;1.00;0.50;;;;;;;;;;5002939;28;20435;-64
2024/01/20 09:19:11;;;;;;;0.95;0.45;;;;;;;;;;5018424;28;20116;-63
2024/01/20 09:21:36;;;;;;;0.93;0.40;;;;;;;;;;5023026;28;20029;-60
2024/01/20 09:24:02;;;;;;;1.98;0.68;;;;;;;;;;5007394;28;20037;-59
2024/01/20 09:26:29;;;;;;;1.35;0.40;;;;;;;;;;5021429;28;20038;-62
2024/01/20 09:28:57;;;;;;;0.85;0.60;;;;;;;;;;5023988;28;20485;-60
2024/01/20 09:31:23;;;;;;;0.60;0.30;;;;;;;;;;5013970;28;20045;-60
2024/01/20 09:33:50;;;;;;;1.30;0.50;;;;;;;;;;4971660;28;20040;-59
2024/01/20 09:36:31;;;;;;;1.23;0.60;;;;;;;;;;5022630;28;20053;-61
2024/01/20 09:39:17;;;;;;;1.00;0.55;;;;;;;;;;5025382;28;20723;-59
2024/01/20 09:41:42;;;;;;;1.27;0.50;;;;;;;;;;5036566;23;20049;-62
2024/01/20 09:44:08;;;;;;;1.00;0.50;;;;;;;;;;5032451;28;20053;-61
2024/01/20 09:46:34;;;;;;;3.03;2.17;;;;;;;;;;5014579;28;20399;-62
2024/01/20 09:49:00;;;;;;;2.17;0.80;;;;;;;;;;5020659;28;20086;-61
2024/01/20 09:51:31;;;;;;;1.20;0.75;;;;;;;;;;5010050;28;20776;-62
2024/01/20 09:53:59;;;;;;;1.45;0.70;;;;;;;;;;5028286;28;20420;-60
2024/01/20 09:56:27;;;;;;;1.48;0.60;;;;;;;;;;5035049;28;20044;-61
2024/01/20 09:58:53;;;;;;;1.67;0.55;;;;;;;;;;5012144;28;20034;-61
2024/01/20 10:01:18;;;;;;;0.90;0.60;;;;;;;;;;5000683;28;20056;-62
2024/01/20 10:03:44;;;;;;;1.52;0.70;;;;;;;;;;5006203;28;20068;-65
2024/01/20 10:06:10;;;;;;;1.20;0.63;;;;;;;;;;5014537;28;20045;-61
2024/01/20 10:08:35;;;;;;;0.95;0.50;;;;;;;;;;5030100;28;20042;-62
2024/01/20 10:11:03;;;;;;;0.98;0.50;;;;;;;;;;5027734;28;20411;-62
2024/01/20 10:13:29;;;;;;;0.80;0.50;;;;;;;;;;5029108;28;20577;-61
2024/01/20 10:15:54;;;;;;;1.30;0.73;;;;;;;;;;5029677;28;20140;-61
2024/01/20 10:18:19;;;;;;;1.80;0.60;;;;;;;;;;5031012;28;20053;-60
2024/01/20 10:20:45;;;;;;;1.10;0.50;;;;;;;;;;5039291;23;20133;-73
2024/01/20 10:23:11;;;;;;;1.30;0.68;;;;;;;;;;5000884;28;20042;-74
2024/01/20 10:25:38;;;;;;;2.72;0.80;;;;;;;;;;5034470;28;20064;-74
2024/01/20 10:30:38;;;;;;;1.42;0.80;;;;;;;;;;3360171;26;20128;-62
2024/01/20 10:33:04;;;;;;;2.22;0.70;;;;;;;;;;5033404;28;20121;-62
2024/01/20 10:38:06;;;;;;;1.30;0.70;;;;;;;;;;5066868;23;20139;-82
2024/01/20 10:40:31;;;;;;;1.52;0.80;;;;;;;;;;4992360;28;20055;-74
2024/01/20 10:43:00;;;;;;;1.67;0.85;;;;;;;;;;5039066;28;20089;-78
2024/01/20 10:45:25;;;;;;;2.25;0.98;;;;;;;;;;5018043;28;20029;-78
2024/01/20 10:48:00;;;;;;;1.20;0.73;;;;;;;;;;5019377;28;20032;-79
2024/01/20 10:50:25;;;;;;;1.08;0.60;;;;;;;;;;5026301;28;20534;-79
2024/01/20 10:52:51;;;;;;;1.90;0.90;;;;;;;;;;5021796;28;20056;-79
2024/01/20 10:55:16;;;;;;;1.52;0.80;;;;;;;;;;5015233;28;20129;-79
2024/01/20 10:57:41;;;;;;;1.77;1.00;;;;;;;;;;5048217;23;20136;-62
2024/01/20 11:00:10;;;;;;;3.50;1.10;;;;;;;;;;5008041;28;20079;-63
2024/01/20 11:02:35;;;;;;;1.85;0.88;;;;;;;;;;5004219;28;20042;-60
2024/01/20 11:05:01;;;;;;;2.03;0.82;;;;;;;;;;5026312;28;20412;-69
2024/01/20 11:07:26;;;;;;;2.90;1.20;;;;;;;;;;5004268;28;20541;-65
2024/01/20 11:09:56;;;;;;;2.38;1.20;;;;;;;;;;5012428;28;20108;-67
2024/01/20 11:12:22;;;;;;;1.77;0.88;;;;;;;;;;5009770;28;20143;-65
2024/01/20 11:14:52;;;;;;;2.45;1.17;;;;;;;;;;5009781;28;20034;-66
2024/01/20 11:17:17;;;;;;;2.92;1.20;;;;;;;;;;5026268;28;20592;-65
2024/01/20 11:19:42;;;;;;;2.03;1.20;;;;;;;;;;5010808;28;20064;-65
2024/01/20 11:22:26;;;;;;;2.17;0.95;;;;;;;;;;5011650;28;20045;-66
2024/01/20 11:24:52;;;;;;;2.88;1.40;;;;;;;;;;5010894;28;20033;-66
2024/01/20 11:27:17;;;;;;;2.20;0.95;;;;;;;;;;5013773;28;20495;-66
2024/01/20 11:29:42;;;;;;;2.47;0.93;;;;;;;;;;5011900;28;20041;-65
2024/01/20 11:32:08;;;;;;;2.35;1.23;;;;;;;;;;5002076;28;20046;-66
2024/01/20 11:34:33;;;;;;;2.25;1.10;;;;;;;;;;5008642;28;20046;-65
2024/01/20 11:36:59;;;;;;;2.40;1.05;;;;;;;;;;5010200;28;20038;-66
2024/01/20 11:39:25;;;;;;;2.55;1.20;;;;;;;;;;5012276;28;20038;-64
2024/01/20 11:42:00;;;;;;;2.40;1.10;;;;;;;;;;5014235;28;20041;-67
2024/01/20 11:44:27;;;;;;;2.00;1.40;;;;;;;;;;5013659;28;20037;-66
2024/01/20 11:46:53;;;;;;;1.73;1.10;;;;;;;;;;5009527;28;20049;-66
2024/01/20 11:49:18;;;;;;;2.38;1.30;;;;;;;;;;5008015;28;20084;-66
2024/01/20 11:51:43;;;;;;;2.10;1.25;;;;;;;;;;5026550;28;20501;-66
2024/01/20 11:54:09;;;;;;;2.25;1.20;;;;;;;;;;5029883;28;20069;-67
2024/01/20 11:56:34;;;;;;;2.47;1.40;;;;;;;;;;5010865;28;20072;-66
2024/01/20 11:58:59;;;;;;;2.30;1.10;;;;;;;;;;5028183;28;20068;-66
2024/01/20 12:01:24;;;;;;;1.80;1.10;;;;;;;;;;5011246;28;20057;-66
2024/01/20 12:03:50;;;;;;;1.85;1.10;;;;;;;;;;5028290;28;20056;-66
2024/01/20 12:06:15;;;;;;;2.00;1.25;;;;;;;;;;5031341;28;20029;-66
2024/01/20 12:08:42;;;;;;;2.45;1.35;;;;;;;;;;5030259;28;20120;-65
2024/01/20 12:11:07;;;;;;;2.35;1.20;;;;;;;;;;5032632;28;20087;-66
2024/01/20 12:13:34;;;;;;;2.53;1.25;;;;;;;;;;5032408;28;20065;-64
2024/01/20 12:15:59;;;;;;;6.63;1.77;;;;;;;;;;5032583;28;20110;-67
2024/01/20 12:18:25;;;;;;;7.32;1.85;;;;;;;;;;5029513;28;20108;-66
2024/01/20 12:20:50;;;;;;;5.47;1.80;;;;;;;;;;5030969;28;20489;-67
2024/01/20 12:23:19;;;;;;;3.30;1.63;;;;;;;;;;5032629;28;20071;-66
2024/01/20 12:25:50;;;;;;;3.95;1.35;;;;;;;;;;5031723;28;20021;-65
2024/01/20 12:28:16;;;;;;;5.53;1.75;;;;;;;;;;5039103;28;20041;-69
2024/01/20 12:30:42;;;;;;;3.92;1.80;;;;;;;;;;5036792;28;20092;-68
2024/01/20 12:33:08;;;;;;;5.72;1.88;;;;;;;;;;5040743;28;20560;-68
2024/01/20 12:35:35;;;;;;;4.75;1.80;;;;;;;;;;5034346;28;20126;-68
2024/01/20 12:38:01;;;;;;;3.45;1.80;;;;;;;;;;5049694;28;20016;-68
2024/01/20 12:40:32;;;;;;;3.95;1.60;;;;;;;;;;5035429;28;20037;-66
2024/01/20 12:43:00;;;;;;;5.10;1.90;;;;;;;;;;5035778;28;20029;-67
2024/01/20 12:45:26;;;;;;;4.13;1.98;;;;;;;;;;5049872;28;20036;-68
2024/01/20 12:47:51;;;;;;;3.15;1.50;;;;;;;;;;5029688;28;20033;-66
2024/01/20 12:50:16;;;;;;;4.00;1.77;;;;;;;;;;5027155;28;20025;-69
2024/01/20 12:52:42;;;;;;;3.78;1.95;;;;;;;;;;5030658;28;20466;-68
2024/01/20 12:55:07;;;;;;;3.80;1.65;;;;;;;;;;5029875;28;21906;-67
2024/01/20 12:57:33;;;;;;;4.10;1.95;;;;;;;;;;5044395;28;20032;-63
2024/01/20 12:59:58;;;;;;;4.03;1.83;;;;;;;;;;5053181;28;20137;-67
2024/01/20 13:02:23;;;;;;;4.03;1.75;;;;;;;;;;5049343;28;20045;-68
2024/01/20 13:04:49;;;;;;;2.92;1.65;;;;;;;;;;5047729;28;20044;-69
2024/01/20 13:07:14;;;;;;;2.58;1.40;;;;;;;;;;5046642;28;20033;-68
2024/01/20 13:09:40;;;;;;;3.22;1.88;;;;;;;;;;5050618;28;20127;-67
2024/01/20 13:12:05;;;;;;;3.30;1.83;;;;;;;;;;5057407;28;20044;-66
2024/01/20 13:14:31;;;;;;;4.40;1.80;;;;;;;;;;5054140;28;20045;-67
2024/01/20 13:16:56;;;;;;;3.97;1.90;;;;;;;;;;5049608;28;20450;-66
2024/01/20 13:19:22;;;;;;;4.18;1.80;;;;;;;;;;5053004;28;20041;-67
2024/01/20 13:21:47;;;;;;;3.65;1.77;;;;;;;;;;5052863;28;20043;-67
2024/01/20 13:24:13;;;;;;;6.35;2.08;;;;;;;;;;5057728;28;20048;-66
2024/01/20 13:26:38;;;;;;;3.72;1.88;;;;;;;;;;5049486;28;20051;-66
2024/01/20 13:29:03;;;;;;;2.75;1.73;;;;;;;;;;5048069;28;20070;-65
2024/01/20 13:31:29;;;;;;;5.43;2.03;;;;;;;;;;5054288;28;20036;-68
2024/01/20 13:33:54;;;;;;;7.10;3.15;;;;;;;;;;5048199;28;20041;-68
2024/01/20 13:36:19;;;;;;;5.32;3.38;;;;;;;;;;5048448;28;20045;-68
2024/01/20 13:38:45;;;;;;;5.53;3.55;;;;;;;;;;5054353;28;20040;-68
2024/01/20 13:41:10;;;;;;;5.70;3.00;;;;;;;;;;5054799;28;20041;-67
2024/01/20 13:43:35;;;;;;;5.60;3.70;;;;;;;;;;5040811;28;20036;-67
2024/01/20 13:46:01;;;;;;;6.22;3.70;;;;;;;;;;5048206;28;20032;-70
2024/01/20 13:48:26;;;;;;;4.95;3.45;;;;;;;;;;5047839;28;20490;-67
2024/01/20 13:50:52;;;;;;;7.35;3.17;;;;;;;;;;5031451;28;20056;-68
2024/01/20 13:53:17;;;;;;;7.65;3.10;;;;;;;;;;5046415;28;20114;-67
2024/01/20 13:55:42;;;;;;;5.88;2.78;;;;;;;;;;5048080;28;20033;-68
2024/01/20 13:58:08;;;;;;;5.30;2.80;;;;;;;;;;5041174;28;21194;-65
2024/01/20 14:00:33;;;;;;;6.10;2.70;;;;;;;;;;5048782;28;20119;-67
2024/01/20 14:02:59;;;;;;;7.90;2.70;;;;;;;;;;5047698;28;20122;-67
2024/01/20 14:05:24;;;;;;;6.05;2.63;;;;;;;;;;5048595;28;20058;-67
2024/01/20 14:07:49;;;;;;;6.03;2.85;;;;;;;;;;5048905;28;20040;-67
2024/01/20 14:10:15;;;;;;;6.00;2.60;;;;;;;;;;5048491;28;20033;-67
2024/01/20 14:12:40;;;;;;;4.82;2.47;;;;;;;;;;5046243;28;20583;-67
2024/01/20 14:15:06;;;;;;;10.68;2.83;;;;;;;;;;5047850;28;20065;-67
2024/01/20 14:17:32;;;;;;;3.72;2.20;;;;;;;;;;5053480;28;20036;-68
2024/01/20 14:19:57;;;;;;;4.63;2.42;;;;;;;;;;5057316;28;20572;-65
2024/01/20 14:22:23;;;;;;;3.97;2.22;;;;;;;;;;5052190;28;20570;-65
2024/01/20 14:24:48;;;;;;;4.43;2.53;;;;;;;;;;5049459;28;20029;-69
2024/01/20 14:27:14;;;;;;;4.55;2.63;;;;;;;;;;5046063;28;20059;-65
2024/01/20 14:29:40;;;;;;;7.68;2.40;;;;;;;;;;5046591;28;20029;-61
2024/01/20 14:32:06;;;;;;;4.25;2.30;;;;;;;;;;5045695;28;20047;-62
2024/01/20 14:34:31;;;;;;;4.90;2.50;;;;;;;;;;5045894;28;20056;-65
2024/01/20 14:36:57;;;;;;;4.05;2.35;;;;;;;;;;5045658;28;20025;-66
2024/01/20 14:39:22;;;;;;;5.45;2.75;;;;;;;;;;5048002;28;20056;-65
2024/01/20 14:41:47;;;;;;;5.25;2.58;;;;;;;;;;5050530;28;20029;-69